Aérodrome :
LOGIN :

S'inscrire | Disclaimer

   EN    FR    IT 

 










Légende :    VFR   VFR Marginal   IFR   IFR Intensif   IFR Très Intensif
Visi : 
Plafond : 
>= 8 km
>= 3000ft
5 à 8 km
1000 à 3000 ft
1500m à 5 km
500 à 1000 ft
800 à 1500m
200 à 500 ft
< 800m
< 200 ft
Symboles :   Orages  Brouillard  Fortes neiges  Fortes précipitations  Vent > 20 kt
SIGMETs :   Divers  Orages  Givrage  Turbulence  Onde Orograph.  Cendres Volcan.







- Altitude de l'aérodrome : 38 ft
- Code IATA : TRE
- Voir les cartes d'approche


EGPU - Tiree

DERNIER METAR :
  • 231250Z 26008KT 9999 BKN011 BKN021 15/13 Q1012

METARs EXPIRÉS :
  • 231220Z 23009KT 9999 BKN016 BKN027 16/12 Q1012
  • 231150Z AUTO 24010KT 210V280 9999 BKN015/// BKN021/// 16/13 Q1012 RERA
  • 231120Z 23009KT 9999 SCT006 BKN009 BKN018 15/14 Q1012
  • 231050Z 25009KT 9999 5000W SCT009 BKN017 15/13 Q1012
  • 231020Z 23008KT 9999 SCT010 BKN017 BKN024 15/13 Q1012

TAF TAF EGPU
Valide du 23 à 12h jusqu'au 23 à 18h UTC


231100Z 2312/2318 22009KT 9999 SCT025
PROB30
TEMPO 2312/2316 BKN014
Pas de NOTAMs connus pour ce terrain.



MET'MAP, la Météo Aéronautique d'un coup d'oeil ! - Copyright ORBIFLY Décembre 2007 - Disclaimer

ORBIFLY MET'MAP TEAM :

Programmation & Développement : Alexandra Zaïnal
Conception & Développement : Baudouin d'Aumeries
Co-Programmation & Développement : Marc-Olivier Méhu
Soutien technique & logistique : Manuel Goepfert

Contact : metmap@orbifly.com




SOURCES & CREDITS :

   NOAA